sensor_id;sensor_type;location;lat;lon;timestamp;pressure;altitude;pressure_sealevel;temperature;humidity
47763;BME280;33526;42.690;23.322;2024-01-30T00:01:53;96962.53;;;-1.63;84.34
47763;BME280;33526;42.690;23.322;2024-01-30T00:04:20;96916.72;;;-2.00;84.59
47763;BME280;33526;42.690;23.322;2024-01-30T00:06:48;96944.13;;;-1.75;84.29
47763;BME280;33526;42.690;23.322;2024-01-30T00:09:24;96957.16;;;-1.84;84.51
47763;BME280;33526;42.690;23.322;2024-01-30T00:11:52;96997.97;;;-1.58;85.19
47763;BME280;33526;42.690;23.322;2024-01-30T00:14:22;96986.78;;;-1.53;84.75
47763;BME280;33526;42.690;23.322;2024-01-30T00:16:50;96937.38;;;-1.90;84.69
47763;BME280;33526;42.690;23.322;2024-01-30T00:19:21;96950.75;;;-1.88;84.95
47763;BME280;33526;42.690;23.322;2024-01-30T00:21:48;97038.00;;;-1.32;84.80
47763;BME280;33526;42.690;23.322;2024-01-30T00:24:17;96929.25;;;-1.99;84.09
47763;BME280;33526;42.690;23.322;2024-01-30T00:26:43;96901.13;;;-2.33;83.76
47763;BME280;33526;42.690;23.322;2024-01-30T00:29:10;96977.16;;;-1.71;84.35
47763;BME280;33526;42.690;23.322;2024-01-30T00:31:36;96924.22;;;-2.09;83.92
47763;BME280;33526;42.690;23.322;2024-01-30T00:34:04;96787.59;;;-2.93;84.13
47763;BME280;33526;42.690;23.322;2024-01-30T00:36:29;96958.31;;;-1.85;84.61
47763;BME280;33526;42.690;23.322;2024-01-30T00:39:01;96993.75;;;-1.56;84.73
47763;BME280;33526;42.690;23.322;2024-01-30T00:41:28;96959.88;;;-1.97;84.57
47763;BME280;33526;42.690;23.322;2024-01-30T00:44:00;96953.03;;;-1.90;85.41
47763;BME280;33526;42.690;23.322;2024-01-30T00:46:26;97031.25;;;-1.35;85.42
47763;BME280;33526;42.690;23.322;2024-01-30T00:49:01;96824.38;;;-2.70;85.37
47763;BME280;33526;42.690;23.322;2024-01-30T00:51:27;96945.28;;;-1.88;85.13
47763;BME280;33526;42.690;23.322;2024-01-30T00:53:55;96962.88;;;-1.77;84.01
47763;BME280;33526;42.690;23.322;2024-01-30T00:56:21;96940.34;;;-1.95;84.53
47763;BME280;33526;42.690;23.322;2024-01-30T00:58:47;96944.81;;;-1.78;84.69
47763;BME280;33526;42.690;23.322;2024-01-30T01:01:12;96876.47;;;-2.33;83.06
47763;BME280;33526;42.690;23.322;2024-01-30T01:03:39;97040.25;;;-1.10;85.26
47763;BME280;33526;42.690;23.322;2024-01-30T01:06:07;97031.78;;;-1.17;85.08
47763;BME280;33526;42.690;23.322;2024-01-30T01:08:33;97030.78;;;-1.12;84.92
47763;BME280;33526;42.690;23.322;2024-01-30T01:10:59;96959.19;;;-1.44;84.32
47763;BME280;33526;42.690;23.322;2024-01-30T01:13:24;97021.19;;;-1.19;82.95
47763;BME280;33526;42.690;23.322;2024-01-30T01:15:50;96992.34;;;-1.37;83.34
47763;BME280;33526;42.690;23.322;2024-01-30T01:18:15;97007.34;;;-1.35;84.22
47763;BME280;33526;42.690;23.322;2024-01-30T01:20:41;97048.63;;;-1.19;82.37
47763;BME280;33526;42.690;23.322;2024-01-30T01:23:06;96915.88;;;-2.13;81.79
47763;BME280;33526;42.690;23.322;2024-01-30T01:25:31;96915.75;;;-2.16;82.59
47763;BME280;33526;42.690;23.322;2024-01-30T01:27:57;97043.72;;;-1.38;83.67
47763;BME280;33526;42.690;23.322;2024-01-30T01:30:22;97036.28;;;-1.49;83.92
47763;BME280;33526;42.690;23.322;2024-01-30T01:32:49;96880.53;;;-2.51;83.47
47763;BME280;33526;42.690;23.322;2024-01-30T01:35:26;96943.88;;;-2.07;83.74
47763;BME280;33526;42.690;23.322;2024-01-30T01:37:52;96919.63;;;-2.29;83.55
47763;BME280;33526;42.690;23.322;2024-01-30T01:40:27;97026.22;;;-1.58;84.19
47763;BME280;33526;42.690;23.322;2024-01-30T01:42:54;97050.69;;;-1.52;83.86
47763;BME280;33526;42.690;23.322;2024-01-30T01:47:58;96921.69;;;-2.39;84.16
47763;BME280;33526;42.690;23.322;2024-01-30T01:50:28;97029.97;;;-1.62;84.32
47763;BME280;33526;42.690;23.322;2024-01-30T01:52:55;96904.88;;;-2.50;85.28
47763;BME280;33526;42.690;23.322;2024-01-30T01:55:26;97042.44;;;-1.65;85.37
47763;BME280;33526;42.690;23.322;2024-01-30T01:58:05;96933.53;;;-2.35;85.73
47763;BME280;33526;42.690;23.322;2024-01-30T06:20:28;97074.63;;;-1.86;77.84
47763;BME280;33526;42.690;23.322;2024-01-30T06:22:53;97058.59;;;-1.97;76.51
47763;BME280;33526;42.690;23.322;2024-01-30T06:25:19;96964.56;;;-2.55;76.14
47763;BME280;33526;42.690;23.322;2024-01-30T06:27:45;97035.25;;;-2.15;75.40
47763;BME280;33526;42.690;23.322;2024-01-30T06:30:13;96786.44;;;-3.59;74.35
47763;BME280;33526;42.690;23.322;2024-01-30T06:33:12;96913.78;;;-2.86;71.96
47763;BME280;33526;42.690;23.322;2024-01-30T06:35:42;96905.16;;;-2.63;72.31
47763;BME280;33526;42.690;23.322;2024-01-30T06:38:12;97007.44;;;-1.93;71.35
47763;BME280;33526;42.690;23.322;2024-01-30T06:41:04;96850.03;;;-2.74;71.47
47763;BME280;33526;42.690;23.322;2024-01-30T06:46:21;97055.59;;;-1.21;70.43
47763;BME280;33526;42.690;23.322;2024-01-30T06:48:59;96985.28;;;-1.63;69.15
47763;BME280;33526;42.690;23.322;2024-01-30T06:51:26;97076.78;;;-1.22;68.60
47763;BME280;33526;42.690;23.322;2024-01-30T06:54:13;96996.25;;;-1.50;70.44
47763;BME280;33526;42.690;23.322;2024-01-30T06:56:39;97043.38;;;-1.11;68.96
47763;BME280;33526;42.690;23.322;2024-01-30T07:12:43;97069.47;;;-0.52;68.71
47763;BME280;33526;42.690;23.322;2024-01-30T07:15:24;97045.94;;;-0.78;65.95
47763;BME280;33526;42.690;23.322;2024-01-30T07:23:10;97082.47;;;-0.37;63.96
47763;BME280;33526;42.690;23.322;2024-01-30T07:26:30;97048.75;;;-0.50;64.21
47763;BME280;33526;42.690;23.322;2024-01-30T18:56:05;96852.91;;;-2.58;84.88
47763;BME280;33526;42.690;23.322;2024-01-30T18:58:33;96779.09;;;-3.13;85.45
47763;BME280;33526;42.690;23.322;2024-01-30T19:00:59;96756.75;;;-3.15;86.05
47763;BME280;33526;42.690;23.322;2024-01-30T19:03:27;96716.50;;;-3.48;87.07
47763;BME280;33526;42.690;23.322;2024-01-30T19:06:15;96829.16;;;-2.54;85.30
47763;BME280;33526;42.690;23.322;2024-01-30T19:08:42;96895.66;;;-2.20;85.64
47763;BME280;33526;42.690;23.322;2024-01-30T19:11:18;96816.38;;;-2.62;85.85
47763;BME280;33526;42.690;23.322;2024-01-30T19:13:45;96900.69;;;-2.10;86.12
47763;BME280;33526;42.690;23.322;2024-01-30T19:16:14;96730.97;;;-3.14;85.24
47763;BME280;33526;42.690;23.322;2024-01-30T19:19:02;96947.09;;;-1.80;84.68
47763;BME280;33526;42.690;23.322;2024-01-30T19:21:32;96768.63;;;-2.98;84.83
47763;BME280;33526;42.690;23.322;2024-01-30T19:23:58;96685.75;;;-3.44;83.83
47763;BME280;33526;42.690;23.322;2024-01-30T19:26:26;96797.22;;;-2.62;84.54
47763;BME280;33526;42.690;23.322;2024-01-30T19:28:53;96787.59;;;-2.69;83.79
47763;BME280;33526;42.690;23.322;2024-01-30T19:31:19;96800.84;;;-2.71;82.61
47763;BME280;33526;42.690;23.322;2024-01-30T19:33:45;96895.22;;;-2.10;84.30
47763;BME280;33526;42.690;23.322;2024-01-30T19:36:10;96921.03;;;-1.99;83.26
47763;BME280;33526;42.690;23.322;2024-01-30T19:38:55;96852.72;;;-2.41;82.40
47763;BME280;33526;42.690;23.322;2024-01-30T19:41:36;96775.56;;;-3.01;81.99
47763;BME280;33526;42.690;23.322;2024-01-30T19:44:08;96798.91;;;-2.82;81.79
47763;BME280;33526;42.690;23.322;2024-01-30T19:46:36;96905.94;;;-2.17;82.75
47763;BME280;33526;42.690;23.322;2024-01-30T19:49:04;96940.69;;;-1.97;81.23
47763;BME280;33526;42.690;23.322;2024-01-30T19:51:45;96876.91;;;-2.31;82.33
47763;BME280;33526;42.690;23.322;2024-01-30T19:54:37;96690.28;;;-3.61;82.38
47763;BME280;33526;42.690;23.322;2024-01-30T19:57:09;96863.91;;;-2.34;83.34
47763;BME280;33526;42.690;23.322;2024-01-30T19:59:35;96888.47;;;-2.25;81.29
47763;BME280;33526;42.690;23.322;2024-01-30T20:02:00;96924.56;;;-1.98;82.55
47763;BME280;33526;42.690;23.322;2024-01-30T20:04:26;96909.38;;;-2.08;83.04
47763;BME280;33526;42.690;23.322;2024-01-30T20:06:52;96848.81;;;-2.40;83.57
47763;BME280;33526;42.690;23.322;2024-01-30T20:09:21;96872.59;;;-2.32;83.27
47763;BME280;33526;42.690;23.322;2024-01-30T20:12:07;96724.81;;;-3.11;84.80
47763;BME280;33526;42.690;23.322;2024-01-30T20:14:35;96923.13;;;-1.71;84.06
47763;BME280;33526;42.690;23.322;2024-01-30T20:17:21;96829.31;;;-2.26;84.09
47763;BME280;33526;42.690;23.322;2024-01-30T20:19:47;96738.09;;;-2.88;83.33
47763;BME280;33526;42.690;23.322;2024-01-30T20:22:13;96897.03;;;-1.77;84.17
47763;BME280;33526;42.690;23.322;2024-01-30T20:24:39;96788.53;;;-2.52;84.14
47763;BME280;33526;42.690;23.322;2024-01-30T20:27:06;96799.38;;;-2.43;83.45
47763;BME280;33526;42.690;23.322;2024-01-30T20:29:31;96905.72;;;-1.75;83.17
47763;BME280;33526;42.690;23.322;2024-01-30T20:31:58;96865.97;;;-2.18;83.45
47763;BME280;33526;42.690;23.322;2024-01-30T20:34:25;96835.34;;;-2.45;83.83
47763;BME280;33526;42.690;23.322;2024-01-30T20:36:56;96862.88;;;-2.17;84.42
47763;BME280;33526;42.690;23.322;2024-01-30T20:39:24;96928.38;;;-1.90;83.30
47763;BME280;33526;42.690;23.322;2024-01-30T20:41:53;96924.94;;;-2.00;85.08
47763;BME280;33526;42.690;23.322;2024-01-30T20:44:45;96656.97;;;-3.75;85.50
47763;BME280;33526;42.690;23.322;2024-01-30T20:47:32;96819.00;;;-2.66;85.34
47763;BME280;33526;42.690;23.322;2024-01-30T20:50:05;96755.59;;;-3.14;86.38
47763;BME280;33526;42.690;23.322;2024-01-30T20:52:31;96920.47;;;-2.04;85.75
47763;BME280;33526;42.690;23.322;2024-01-30T21:02:50;96882.88;;;-2.28;88.80
47763;BME280;33526;42.690;23.322;2024-01-30T21:05:20;96766.78;;;-3.07;86.89
47763;BME280;33526;42.690;23.322;2024-01-30T21:08:02;96818.09;;;-2.70;86.97
47763;BME280;33526;42.690;23.322;2024-01-30T21:10:30;96626.78;;;-4.12;87.85
47763;BME280;33526;42.690;23.322;2024-01-30T21:12:56;96911.75;;;-2.31;88.87
47763;BME280;33526;42.690;23.322;2024-01-30T21:15:24;96625.13;;;-4.26;89.54
47763;BME280;33526;42.690;23.322;2024-01-30T21:17:49;96773.22;;;-3.36;91.04
47763;BME280;33526;42.690;23.322;2024-01-30T21:20:17;96758.47;;;-3.43;91.63
47763;BME280;33526;42.690;23.322;2024-01-30T21:22:45;96689.06;;;-3.85;93.12
47763;BME280;33526;42.690;23.322;2024-01-30T21:25:22;96733.78;;;-3.35;93.53
47763;BME280;33526;42.690;23.322;2024-01-30T21:28:11;96655.75;;;-3.99;93.24
47763;BME280;33526;42.690;23.322;2024-01-30T21:30:55;96646.91;;;-3.84;93.50
47763;BME280;33526;42.690;23.322;2024-01-30T21:33:43;96679.03;;;-3.80;92.57
47763;BME280;33526;42.690;23.322;2024-01-30T21:36:51;96913.03;;;-2.28;93.74
47763;BME280;33526;42.690;23.322;2024-01-30T21:39:35;96893.13;;;-2.25;94.20
47763;BME280;33526;42.690;23.322;2024-01-30T21:42:30;96742.13;;;-3.31;94.47
47763;BME280;33526;42.690;23.322;2024-01-30T21:45:06;96747.09;;;-3.33;94.72
47763;BME280;33526;42.690;23.322;2024-01-30T21:47:49;96916.78;;;-2.21;97.55
47763;BME280;33526;42.690;23.322;2024-01-30T21:50:59;96784.50;;;-2.92;95.63
47763;BME280;33526;42.690;23.322;2024-01-30T21:53:30;96625.28;;;-3.89;94.34
47763;BME280;33526;42.690;23.322;2024-01-30T21:55:57;96890.88;;;-2.11;96.30
47763;BME280;33526;42.690;23.322;2024-01-30T21:59:13;96805.47;;;-2.96;95.78
47763;BME280;33526;42.690;23.322;2024-01-30T22:05:35;96759.31;;;-3.31;97.31
47763;BME280;33526;42.690;23.322;2024-01-30T22:08:07;96779.09;;;-3.13;98.52
47763;BME280;33526;42.690;23.322;2024-01-30T22:11:08;96666.00;;;-3.96;98.55
47763;BME280;33526;42.690;23.322;2024-01-30T22:14:17;96898.00;;;-2.43;99.79
47763;BME280;33526;42.690;23.322;2024-01-30T22:17:00;96887.50;;;-2.41;99.26
47763;BME280;33526;42.690;23.322;2024-01-30T22:19:27;96724.22;;;-3.62;99.92
47763;BME280;33526;42.690;23.322;2024-01-30T22:22:21;96773.34;;;-3.32;100.00
47763;BME280;33526;42.690;23.322;2024-01-30T22:25:33;96894.69;;;-2.49;100.00
47763;BME280;33526;42.690;23.322;2024-01-30T22:28:06;96730.38;;;-3.65;100.00
47763;BME280;33526;42.690;23.322;2024-01-30T22:30:36;96765.97;;;-3.53;100.00
47763;BME280;33526;42.690;23.322;2024-01-30T22:33:03;96610.06;;;-4.32;100.00
47763;BME280;33526;42.690;23.322;2024-01-30T22:35:31;96635.38;;;-4.23;100.00
47763;BME280;33526;42.690;23.322;2024-01-30T22:37:57;96611.56;;;-4.55;100.00
47763;BME280;33526;42.690;23.322;2024-01-30T22:40:36;96568.31;;;-4.95;100.00
47763;BME280;33526;42.690;23.322;2024-01-30T22:43:09;96618.44;;;-4.79;100.00
47763;BME280;33526;42.690;23.322;2024-01-30T22:46:01;96607.34;;;-4.74;100.00
47763;BME280;33526;42.690;23.322;2024-01-30T22:48:32;96823.38;;;-3.32;100.00
47763;BME280;33526;42.690;23.322;2024-01-30T22:50:59;96820.31;;;-3.30;100.00
47763;BME280;33526;42.690;23.322;2024-01-30T22:53:24;96822.63;;;-3.20;100.00
47763;BME280;33526;42.690;23.322;2024-01-30T22:55:50;96813.72;;;-3.29;100.00
47763;BME280;33526;42.690;23.322;2024-01-30T22:58:15;96736.13;;;-3.79;100.00
47763;BME280;33526;42.690;23.322;2024-01-30T23:00:41;96868.22;;;-2.91;100.00
47763;BME280;33526;42.690;23.322;2024-01-30T23:03:06;96851.84;;;-3.12;100.00
47763;BME280;33526;42.690;23.322;2024-01-30T23:05:32;96777.56;;;-3.56;100.00
47763;BME280;33526;42.690;23.322;2024-01-30T23:07:59;96866.94;;;-3.05;100.00
47763;BME280;33526;42.690;23.322;2024-01-30T23:10:25;96736.13;;;-4.00;100.00
47763;BME280;33526;42.690;23.322;2024-01-30T23:12:51;96797.88;;;-3.78;100.00
47763;BME280;33526;42.690;23.322;2024-01-30T23:15:17;96635.59;;;-4.70;100.00
47763;BME280;33526;42.690;23.322;2024-01-30T23:17:43;96743.06;;;-4.03;100.00
47763;BME280;33526;42.690;23.322;2024-01-30T23:20:11;96775.59;;;-3.89;100.00
47763;BME280;33526;42.690;23.322;2024-01-30T23:22:37;96857.94;;;-3.27;100.00
47763;BME280;33526;42.690;23.322;2024-01-30T23:25:04;96857.34;;;-3.33;100.00
47763;BME280;33526;42.690;23.322;2024-01-30T23:27:30;96763.91;;;-3.77;100.00
47763;BME280;33526;42.690;23.322;2024-01-30T23:29:57;96675.41;;;-4.48;100.00
47763;BME280;33526;42.690;23.322;2024-01-30T23:32:24;96729.78;;;-4.13;100.00
47763;BME280;33526;42.690;23.322;2024-01-30T23:34:50;96842.81;;;-3.46;100.00
47763;BME280;33526;42.690;23.322;2024-01-30T23:37:16;96817.75;;;-3.69;100.00
47763;BME280;33526;42.690;23.322;2024-01-30T23:39:44;96844.16;;;-3.52;100.00
47763;BME280;33526;42.690;23.322;2024-01-30T23:42:14;96847.34;;;-3.50;100.00
47763;BME280;33526;42.690;23.322;2024-01-30T23:44:47;96800.25;;;-3.76;100.00
47763;BME280;33526;42.690;23.322;2024-01-30T23:47:19;96720.84;;;-4.22;100.00
47763;BME280;33526;42.690;23.322;2024-01-30T23:49:44;96706.25;;;-4.47;100.00
47763;BME280;33526;42.690;23.322;2024-01-30T23:52:11;96834.81;;;-3.51;100.00
47763;BME280;33526;42.690;23.322;2024-01-30T23:54:37;96835.47;;;-3.54;100.00
47763;BME280;33526;42.690;23.322;2024-01-30T23:57:02;96720.78;;;-4.34;100.00
47763;BME280;33526;42.690;23.322;2024-01-30T23:59:28;96798.66;;;-3.77;100.00
